createdAt,value
2022-12-06T00:00:28.042Z,30.80
2022-12-06T00:02:56.522Z,30.03
2022-12-06T00:05:25.042Z,28.53
2022-12-06T00:07:53.521Z,28.70
2022-12-06T00:10:21.995Z,30.53
2022-12-06T00:12:51.827Z,31.30
2022-12-06T00:15:20.451Z,31.07
2022-12-06T00:17:49.033Z,31.30
2022-12-06T00:20:17.549Z,30.93
2022-12-06T00:22:46.202Z,28.03
2022-12-06T00:25:14.626Z,30.57
2022-12-06T00:27:43.054Z,30.83
2022-12-06T00:30:13.271Z,30.23
2022-12-06T00:32:41.713Z,35.63
2022-12-06T00:35:10.179Z,33.20
2022-12-06T00:37:38.628Z,36.83
2022-12-06T00:40:07.665Z,29.10
2022-12-06T00:42:36.161Z,30.27
2022-12-06T00:45:04.601Z,28.97
2022-12-06T00:47:34.432Z,30.63
2022-12-06T00:50:03.210Z,29.60
2022-12-06T00:52:31.666Z,27.37
2022-12-06T00:55:00.109Z,31.13
2022-12-06T00:57:28.554Z,31.53
2022-12-06T00:59:57.150Z,28.93
2022-12-06T01:02:25.766Z,26.43
2022-12-06T01:04:55.572Z,28.90
2022-12-06T01:07:24.005Z,27.47
2022-12-06T01:09:52.429Z,29.77
2022-12-06T01:12:20.768Z,26.07
2022-12-06T01:14:49.217Z,26.67
2022-12-06T01:17:17.565Z,26.37
2022-12-06T01:19:45.879Z,26.37
2022-12-06T01:22:15.628Z,26.97
2022-12-06T01:24:43.964Z,31.07
2022-12-06T01:27:12.293Z,31.33
2022-12-06T01:29:40.831Z,32.00
2022-12-06T01:32:09.188Z,29.30
2022-12-06T01:34:37.682Z,28.90
2022-12-06T01:37:06.398Z,26.83
2022-12-06T01:39:36.104Z,27.67
2022-12-06T01:42:04.784Z,32.83
2022-12-06T01:44:43.702Z,27.00
2022-12-06T01:47:22.550Z,28.60
2022-12-06T01:49:52.949Z,28.53
2022-12-06T01:52:22.904Z,27.17
2022-12-06T01:54:52.600Z,33.53
2022-12-06T01:57:21.074Z,28.67
2022-12-06T01:59:49.426Z,28.53
2022-12-06T02:02:17.959Z,29.83
2022-12-06T02:04:46.512Z,29.17
2022-12-06T02:07:15.310Z,29.20
2022-12-06T02:09:44.572Z,31.73
2022-12-06T02:12:15.469Z,27.47
2022-12-06T02:14:44.896Z,34.37
2022-12-06T02:17:18.420Z,29.50
2022-12-06T02:20:00.062Z,30.83
2022-12-06T02:22:32.200Z,29.20
2022-12-06T02:25:04.061Z,28.37
2022-12-06T02:27:39.606Z,36.97
2022-12-06T02:30:13.527Z,42.97
2022-12-06T02:32:53.254Z,33.37
2022-12-06T02:35:27.048Z,37.20
2022-12-06T02:37:58.190Z,31.33
2022-12-06T02:40:29.484Z,30.43
2022-12-06T02:43:00.452Z,34.27
2022-12-06T02:45:29.845Z,34.13
2022-12-06T02:48:01.847Z,44.00
2022-12-06T02:50:32.102Z,37.10
2022-12-06T02:53:01.813Z,44.77
2022-12-06T02:55:31.262Z,33.50
2022-12-06T02:57:59.632Z,34.60
2022-12-06T03:00:35.929Z,30.30
2022-12-06T03:03:13.454Z,35.50
2022-12-06T03:05:43.948Z,42.33
2022-12-06T03:08:16.811Z,40.67
2022-12-06T03:10:48.738Z,39.72
2022-12-06T03:13:18.547Z,33.63
2022-12-06T03:15:50.280Z,33.00
2022-12-06T03:18:23.949Z,36.20
2022-12-06T03:20:54.947Z,36.75
2022-12-06T03:23:26.271Z,36.43
2022-12-06T03:25:57.059Z,36.13
2022-12-06T03:28:26.005Z,37.35
2022-12-06T03:30:55.115Z,37.03
2022-12-06T03:33:25.540Z,39.10
2022-12-06T03:35:54.719Z,45.77
2022-12-06T03:38:26.707Z,33.67
2022-12-06T03:40:55.970Z,36.53
2022-12-06T03:43:24.548Z,39.13
2022-12-06T03:45:57.235Z,38.33
2022-12-06T03:48:29.114Z,36.43
2022-12-06T03:51:00.139Z,36.75
2022-12-06T03:53:28.516Z,39.10
2022-12-06T03:55:56.872Z,32.53
2022-12-06T03:58:25.257Z,48.72
2022-12-06T04:00:53.568Z,39.55
2022-12-06T04:03:22.036Z,34.53
2022-12-06T04:05:51.764Z,35.90
2022-12-06T04:08:20.240Z,34.28
2022-12-06T04:10:48.652Z,31.43
2022-12-06T04:13:19.796Z,35.28
2022-12-06T04:15:49.281Z,36.73
2022-12-06T04:18:18.698Z,34.28
2022-12-06T04:21:08.357Z,35.67
2022-12-06T04:23:38.783Z,39.17
2022-12-06T04:26:07.839Z,38.47
2022-12-06T04:28:53.612Z,41.20
2022-12-06T04:31:39.859Z,41.27
2022-12-06T04:34:25.731Z,35.88
2022-12-06T04:37:11.707Z,36.27
2022-12-06T04:39:41.399Z,36.22
2022-12-06T04:42:27.358Z,37.03
2022-12-06T04:44:55.671Z,37.43
2022-12-06T04:47:24.044Z,41.70
2022-12-06T04:49:52.556Z,33.95
2022-12-06T04:52:21.295Z,37.30
2022-12-06T04:54:51.019Z,37.60
2022-12-06T04:57:19.419Z,39.80
2022-12-06T04:59:49.373Z,40.80
2022-12-06T05:02:17.814Z,43.07
2022-12-06T05:04:46.139Z,40.77
2022-12-06T05:07:14.488Z,46.72
2022-12-06T05:09:42.798Z,41.15
2022-12-06T05:12:12.723Z,40.13
2022-12-06T05:14:41.063Z,36.47
2022-12-06T05:17:09.443Z,39.55
2022-12-06T05:19:37.791Z,38.87
2022-12-06T05:22:06.160Z,38.73
2022-12-06T05:24:34.574Z,38.90
2022-12-06T05:27:03.015Z,40.20
2022-12-06T05:29:32.913Z,36.57
2022-12-06T05:32:01.322Z,38.93
2022-12-06T05:34:29.731Z,35.33
2022-12-06T05:36:58.087Z,37.03
2022-12-06T05:39:26.505Z,35.97
2022-12-06T05:41:54.851Z,33.83
2022-12-06T05:44:23.170Z,31.63
2022-12-06T05:46:52.916Z,37.65
2022-12-06T05:49:21.541Z,39.45
2022-12-06T05:51:50.056Z,38.70
2022-12-06T05:54:18.410Z,35.42
2022-12-06T05:56:46.807Z,34.40
2022-12-06T05:59:15.147Z,35.53
2022-12-06T06:01:43.512Z,35.70
2022-12-06T06:04:13.342Z,31.50
2022-12-06T06:06:41.740Z,38.25
2022-12-06T06:09:10.079Z,32.17
2022-12-06T06:11:38.696Z,34.13
2022-12-06T06:14:07.077Z,31.25
2022-12-06T06:16:35.486Z,39.20
2022-12-06T06:19:04.057Z,41.60
2022-12-06T06:21:33.774Z,47.65
2022-12-06T06:24:02.079Z,40.58
2022-12-06T06:26:30.890Z,37.83
2022-12-06T06:28:59.217Z,39.25
2022-12-06T06:31:27.798Z,38.35
2022-12-06T06:33:56.186Z,33.35
2022-12-06T06:36:24.565Z,30.15
2022-12-06T06:38:54.316Z,36.70
2022-12-06T06:41:22.701Z,33.17
2022-12-06T06:43:51.194Z,35.22
2022-12-06T06:46:19.841Z,33.00
2022-12-06T06:48:48.210Z,30.77
2022-12-06T06:51:16.586Z,36.10
2022-12-06T06:53:44.953Z,36.95
2022-12-06T06:56:14.663Z,35.83
2022-12-06T06:58:43.057Z,32.92
2022-12-06T07:01:17.148Z,36.17
2022-12-06T07:03:45.527Z,37.22
2022-12-06T07:06:13.932Z,35.22
2022-12-06T07:08:42.812Z,37.97
2022-12-06T07:11:12.100Z,36.10
2022-12-06T07:13:46.854Z,35.63
2022-12-06T07:16:18.564Z,35.90
2022-12-06T07:18:47.592Z,33.95
2022-12-06T07:21:17.034Z,33.75
2022-12-06T07:23:45.599Z,33.33
2022-12-06T07:26:14.970Z,30.50
2022-12-06T07:28:45.453Z,32.03
2022-12-06T07:31:15.286Z,32.10
2022-12-06T07:33:44.553Z,32.08
2022-12-06T07:36:14.877Z,32.42
2022-12-06T07:38:43.718Z,30.17
2022-12-06T07:41:26.780Z,29.17
2022-12-06T07:44:14.772Z,32.40
2022-12-06T07:46:43.510Z,32.03
2022-12-06T07:49:11.943Z,34.13
2022-12-06T07:51:40.991Z,34.47
2022-12-06T07:54:09.333Z,31.77
2022-12-06T07:56:38.066Z,30.60
2022-12-06T07:59:07.775Z,31.88
2022-12-06T08:01:36.376Z,36.65
2022-12-06T08:04:05.940Z,37.10
2022-12-06T08:06:34.903Z,35.10
2022-12-06T08:09:03.310Z,30.73
2022-12-06T08:11:31.670Z,25.33
2022-12-06T08:14:00.124Z,26.50
2022-12-06T08:16:29.878Z,22.98
2022-12-06T08:18:58.498Z,27.98
2022-12-06T08:21:27.064Z,21.50
2022-12-06T08:23:58.542Z,21.60
2022-12-06T08:26:27.090Z,19.48
2022-12-06T08:28:55.416Z,22.25
2022-12-06T08:31:25.069Z,23.23
2022-12-06T08:33:54.973Z,23.63
2022-12-06T08:36:24.065Z,23.33
2022-12-06T08:38:52.786Z,21.92
2022-12-06T08:41:39.366Z,17.92
2022-12-06T08:44:07.942Z,18.92
2022-12-06T08:46:36.688Z,21.67
2022-12-06T08:49:06.474Z,20.80
2022-12-06T08:51:35.712Z,21.27
2022-12-06T08:54:04.529Z,19.38
2022-12-06T08:56:32.861Z,17.85
2022-12-06T08:59:01.205Z,19.30
2022-12-06T09:01:37.163Z,15.07
2022-12-06T09:04:08.923Z,21.42
2022-12-06T09:06:38.903Z,23.70
2022-12-06T09:09:07.644Z,17.48
2022-12-06T09:11:36.066Z,19.35
2022-12-06T09:14:04.440Z,14.57
2022-12-06T09:16:33.071Z,18.98
2022-12-06T09:19:01.590Z,19.33
2022-12-06T09:21:32.988Z,18.83
2022-12-06T09:24:01.568Z,18.27
2022-12-06T09:26:30.443Z,16.40
2022-12-06T09:28:59.822Z,16.42
2022-12-06T09:31:28.482Z,16.70
2022-12-06T09:33:57.212Z,17.42
2022-12-06T09:36:26.953Z,17.17
2022-12-06T09:38:59.028Z,16.85
2022-12-06T09:41:39.013Z,14.82
2022-12-06T09:44:15.456Z,15.50
2022-12-06T09:46:50.367Z,17.10
2022-12-06T09:49:27.133Z,17.45
2022-12-06T09:52:04.673Z,20.13
2022-12-06T09:54:49.051Z,17.65
2022-12-06T09:57:23.809Z,15.60
2022-12-06T09:59:58.361Z,16.15
2022-12-06T10:02:34.156Z,14.38
2022-12-06T10:05:21.543Z,16.55
2022-12-06T10:07:53.603Z,15.77
2022-12-06T10:10:28.396Z,12.13
2022-12-06T10:13:01.403Z,15.77
2022-12-06T10:15:35.432Z,16.38
2022-12-06T10:18:11.513Z,11.65
2022-12-06T10:20:42.263Z,13.90
2022-12-06T10:23:15.736Z,16.95
2022-12-06T10:25:51.974Z,14.85
2022-12-06T10:28:23.548Z,16.50
2022-12-06T10:30:53.165Z,14.88
2022-12-06T10:33:23.174Z,16.67
2022-12-06T10:35:52.844Z,21.75
2022-12-06T10:38:24.895Z,20.40
2022-12-06T10:41:01.017Z,19.35
2022-12-06T10:43:32.160Z,20.58
2022-12-06T10:46:22.571Z,19.25
2022-12-06T10:48:57.695Z,19.58
2022-12-06T10:51:27.968Z,15.13
2022-12-06T10:53:59.084Z,16.27
2022-12-06T10:56:30.510Z,14.32
2022-12-06T10:59:00.451Z,13.20
2022-12-06T11:01:30.125Z,18.85
2022-12-06T11:04:01.569Z,12.07
2022-12-06T11:06:34.104Z,11.30
2022-12-06T11:09:06.575Z,12.05
2022-12-06T11:11:38.104Z,10.15
2022-12-06T11:14:07.491Z,12.73
2022-12-06T11:16:38.829Z,10.60
2022-12-06T11:19:17.364Z,8.80
2022-12-06T11:21:50.512Z,9.68
2022-12-06T11:24:22.476Z,9.57
2022-12-06T11:26:55.185Z,9.95
2022-12-06T11:29:23.526Z,10.82
2022-12-06T11:31:53.529Z,12.18
2022-12-06T11:34:24.450Z,14.88
2022-12-06T11:36:59.576Z,16.73
2022-12-06T11:39:28.800Z,17.85
2022-12-06T11:42:00.377Z,17.50
2022-12-06T11:44:29.996Z,13.23
2022-12-06T11:47:00.000Z,12.73
2022-12-06T11:49:30.051Z,12.38
2022-12-06T11:51:59.930Z,9.70
2022-12-06T11:54:29.765Z,9.93
2022-12-06T11:57:03.133Z,12.25
2022-12-06T11:59:32.712Z,11.95
2022-12-06T12:02:02.635Z,14.32
2022-12-06T12:04:36.407Z,12.30
2022-12-06T12:07:06.580Z,14.23
2022-12-06T12:09:37.358Z,10.75
2022-12-06T12:12:08.331Z,12.30
2022-12-06T12:14:44.110Z,13.25
2022-12-06T12:17:18.328Z,9.95
2022-12-06T12:19:48.627Z,10.85
2022-12-06T12:22:22.404Z,10.75
2022-12-06T12:27:49.095Z,10.05
2022-12-06T12:30:22.389Z,11.52
2022-12-06T12:32:51.605Z,10.88
2022-12-06T12:35:28.015Z,10.40
2022-12-06T12:37:58.458Z,8.50
2022-12-06T12:40:28.182Z,10.68
2022-12-06T12:43:02.005Z,9.70
2022-12-06T12:45:30.617Z,8.77
2022-12-06T12:47:59.885Z,7.90
2022-12-06T12:50:28.462Z,10.75
2022-12-06T12:52:57.192Z,7.60
2022-12-06T12:55:26.697Z,9.45
2022-12-06T12:57:55.672Z,6.72
2022-12-06T13:00:27.373Z,5.05
2022-12-06T13:02:57.825Z,4.82
2022-12-06T13:05:33.756Z,7.35
2022-12-06T13:08:07.057Z,6.85
2022-12-06T13:10:36.736Z,7.43
2022-12-06T13:13:06.783Z,5.43
2022-12-06T13:15:38.633Z,6.95
2022-12-06T13:18:12.494Z,6.40
2022-12-06T13:20:42.111Z,5.30
2022-12-06T13:23:13.344Z,7.75
2022-12-06T13:25:41.822Z,6.13
2022-12-06T13:28:16.923Z,8.00
2022-12-06T13:30:47.745Z,6.72
2022-12-06T13:33:21.327Z,5.35
2022-12-06T13:35:53.171Z,5.47
2022-12-06T13:38:27.121Z,5.40
2022-12-06T13:40:56.751Z,5.03
2022-12-06T13:43:57.972Z,5.15
2022-12-06T13:46:29.404Z,7.40
2022-12-06T13:48:58.439Z,5.18
2022-12-06T13:51:45.418Z,5.63
2022-12-06T13:54:30.258Z,7.97
2022-12-06T13:56:59.723Z,4.90
2022-12-06T13:59:45.896Z,6.10
2022-12-06T14:02:32.761Z,4.95
2022-12-06T14:05:03.027Z,5.10
2022-12-06T14:07:34.203Z,5.60
2022-12-06T14:10:09.061Z,6.90
2022-12-06T14:12:37.405Z,7.90
2022-12-06T14:15:07.187Z,6.50
2022-12-06T14:20:30.974Z,4.82
2022-12-06T14:22:59.330Z,8.85
2022-12-06T14:25:28.750Z,7.20
2022-12-06T14:28:03.407Z,4.97
2022-12-06T14:30:31.857Z,6.68
2022-12-06T14:33:00.899Z,6.43
2022-12-06T14:35:35.245Z,5.63
2022-12-06T14:38:06.065Z,5.13
2022-12-06T14:40:58.355Z,6.00
2022-12-06T14:43:27.008Z,7.00
2022-12-06T14:45:55.933Z,7.88
2022-12-06T14:48:24.434Z,5.32
2022-12-06T14:51:00.429Z,5.55
2022-12-06T14:53:30.802Z,7.88
2022-12-06T14:55:59.896Z,7.10
2022-12-06T14:58:29.251Z,8.55
2022-12-06T15:01:01.936Z,4.78
2022-12-06T15:03:32.553Z,5.72
2022-12-06T15:06:16.815Z,5.13
2022-12-06T15:08:49.252Z,4.95
2022-12-06T15:11:54.319Z,6.60
2022-12-06T15:14:23.636Z,10.35
2022-12-06T15:16:59.573Z,7.20
2022-12-06T15:19:28.039Z,7.25
2022-12-06T15:21:57.754Z,6.07
2022-12-06T15:24:26.921Z,6.30
2022-12-06T15:26:56.026Z,6.85
2022-12-06T15:29:24.497Z,8.75
2022-12-06T15:31:54.409Z,6.57
2022-12-06T15:34:24.635Z,8.52
2022-12-06T15:37:15.189Z,8.90
2022-12-06T15:39:43.083Z,6.75
2022-12-06T15:42:14.360Z,8.20
2022-12-06T15:44:47.351Z,7.63
2022-12-06T15:47:17.535Z,8.75
2022-12-06T15:49:45.868Z,6.90
2022-12-06T15:52:17.285Z,8.15
2022-12-06T15:54:47.331Z,6.68
2022-12-06T15:57:15.971Z,6.63
2022-12-06T15:59:44.282Z,8.80
2022-12-06T16:02:15.901Z,6.40
2022-12-06T16:04:44.727Z,6.55
2022-12-06T16:07:18.877Z,7.13
2022-12-06T16:09:49.018Z,7.20
2022-12-06T16:12:17.537Z,8.98
2022-12-06T16:14:46.214Z,11.60
2022-12-06T16:17:14.578Z,11.55
2022-12-06T16:20:00.622Z,6.95
2022-12-06T16:22:42.880Z,8.05
2022-12-06T16:25:12.714Z,8.20
2022-12-06T16:27:41.095Z,8.25
2022-12-06T16:30:10.162Z,10.23
2022-12-06T16:32:38.514Z,12.10
2022-12-06T16:35:07.049Z,9.18
2022-12-06T16:37:35.383Z,10.10
2022-12-06T16:40:03.767Z,11.68
2022-12-06T16:42:33.454Z,8.98
2022-12-06T16:45:02.120Z,7.47
2022-12-06T16:47:31.666Z,7.38
2022-12-06T16:50:00.007Z,8.15
2022-12-06T16:52:28.544Z,9.52
2022-12-06T16:54:56.903Z,11.75
2022-12-06T16:57:25.262Z,10.27
2022-12-06T16:59:55.431Z,11.55
2022-12-06T17:02:27.775Z,9.40
2022-12-06T17:04:56.403Z,10.90
2022-12-06T17:07:24.757Z,12.93
2022-12-06T17:09:53.132Z,11.13
2022-12-06T17:12:21.506Z,11.48
2022-12-06T17:14:50.013Z,12.77
2022-12-06T17:17:21.365Z,11.70
2022-12-06T17:19:50.595Z,13.55
2022-12-06T17:22:19.674Z,11.48
2022-12-06T17:24:48.104Z,9.63
2022-12-06T17:27:17.095Z,10.25
2022-12-06T17:29:45.861Z,9.27
2022-12-06T17:32:14.582Z,8.68
2022-12-06T17:34:48.095Z,8.13
2022-12-06T17:37:16.603Z,10.13
2022-12-06T17:39:44.980Z,8.48
2022-12-06T17:42:31.384Z,14.27
2022-12-06T17:45:00.119Z,9.35
2022-12-06T17:47:28.783Z,8.88
2022-12-06T17:49:58.802Z,10.90
2022-12-06T17:52:27.347Z,9.88
2022-12-06T17:54:55.936Z,12.65
2022-12-06T17:57:24.490Z,9.95
2022-12-06T17:59:52.854Z,14.73
2022-12-06T18:02:25.769Z,9.60
2022-12-06T18:04:56.176Z,8.38
2022-12-06T18:07:26.087Z,9.20
2022-12-06T18:09:54.446Z,11.02
2022-12-06T18:12:22.961Z,10.50
2022-12-06T18:14:51.368Z,10.30
2022-12-06T18:17:19.685Z,10.80
2022-12-06T18:19:48.250Z,11.82
2022-12-06T18:22:16.738Z,9.50
2022-12-06T18:24:46.639Z,10.77
2022-12-06T18:27:15.000Z,11.82
2022-12-06T18:29:43.441Z,9.93
2022-12-06T18:32:11.814Z,9.73
2022-12-06T18:34:40.259Z,8.80
2022-12-06T18:37:09.302Z,9.30
2022-12-06T18:39:37.661Z,8.23
2022-12-06T18:42:07.569Z,11.50
2022-12-06T18:44:36.273Z,11.80
2022-12-06T18:47:04.584Z,10.70
2022-12-06T18:49:33.092Z,9.93
2022-12-06T18:52:01.492Z,10.90
2022-12-06T18:54:29.883Z,12.63
2022-12-06T18:56:59.287Z,11.13
2022-12-06T18:59:29.426Z,9.52
2022-12-06T19:01:57.955Z,11.48
2022-12-06T19:04:26.423Z,13.18
2022-12-06T19:06:55.356Z,10.05
2022-12-06T19:09:24.649Z,14.00
2022-12-06T19:11:53.045Z,12.43
2022-12-06T19:14:23.129Z,14.35
2022-12-06T19:16:53.716Z,10.60
2022-12-06T19:19:23.036Z,11.10
2022-12-06T19:21:51.915Z,12.73
2022-12-06T19:24:21.860Z,10.00
2022-12-06T19:26:50.661Z,11.07
2022-12-06T19:29:19.503Z,12.02
2022-12-06T19:31:47.940Z,13.55
2022-12-06T19:34:19.206Z,13.45
2022-12-06T19:36:48.062Z,14.20
2022-12-06T19:39:16.492Z,12.13
2022-12-06T19:41:59.047Z,11.57
2022-12-06T19:44:27.828Z,12.57
2022-12-06T19:46:56.161Z,15.18
2022-12-06T19:49:27.202Z,12.80
2022-12-06T19:51:55.681Z,14.80
2022-12-06T19:54:25.082Z,12.23
2022-12-06T19:56:54.351Z,14.85
2022-12-06T19:59:23.179Z,12.20
2022-12-06T20:01:52.732Z,14.85
2022-12-06T20:04:22.663Z,12.02
2022-12-06T20:06:52.721Z,15.50
2022-12-06T20:09:21.494Z,13.07
2022-12-06T20:12:02.636Z,15.65
2022-12-06T20:14:32.315Z,13.88
2022-12-06T20:17:00.675Z,14.45
2022-12-06T20:19:29.177Z,13.00
2022-12-06T20:21:58.890Z,13.77
2022-12-06T20:24:27.377Z,13.23
2022-12-06T20:26:56.616Z,13.23
2022-12-06T20:29:27.035Z,13.60
2022-12-06T20:31:57.857Z,13.75
2022-12-06T20:34:26.260Z,14.38
2022-12-06T20:36:54.648Z,14.48
2022-12-06T20:39:25.227Z,16.40
2022-12-06T20:41:53.871Z,13.65
2022-12-06T20:44:22.659Z,12.43
2022-12-06T20:46:51.334Z,13.95
2022-12-06T20:49:19.735Z,15.35
2022-12-06T20:51:52.616Z,15.68
2022-12-06T20:54:21.803Z,16.45
2022-12-06T20:56:53.396Z,16.98
2022-12-06T20:59:22.249Z,14.70
2022-12-06T21:01:50.662Z,14.13
2022-12-06T21:04:19.098Z,14.32
2022-12-06T21:06:47.481Z,15.95
2022-12-06T21:09:15.876Z,20.33
2022-12-06T21:11:44.223Z,16.20
2022-12-06T21:14:15.102Z,15.45
2022-12-06T21:16:43.981Z,14.73
2022-12-06T21:19:13.495Z,17.45
2022-12-06T21:21:42.807Z,16.65
2022-12-06T21:24:12.747Z,14.57
2022-12-06T21:26:41.076Z,14.35
2022-12-06T21:29:09.434Z,17.40
2022-12-06T21:31:39.551Z,14.02
2022-12-06T21:34:07.956Z,17.38
2022-12-06T21:36:36.321Z,16.55
2022-12-06T21:39:04.663Z,19.92
2022-12-06T21:41:33.052Z,18.33
2022-12-06T21:44:01.401Z,22.33
2022-12-06T21:46:29.949Z,16.35
2022-12-06T21:49:01.185Z,14.65
2022-12-06T21:51:30.585Z,16.75
2022-12-06T21:53:59.555Z,17.52
2022-12-06T21:56:28.884Z,18.40
2022-12-06T21:58:59.993Z,18.80
2022-12-06T22:01:29.129Z,14.95
2022-12-06T22:03:58.980Z,22.10
2022-12-06T22:06:28.811Z,20.73
2022-12-06T22:08:58.583Z,20.00
2022-12-06T22:11:27.017Z,21.92
2022-12-06T22:13:55.437Z,21.10
2022-12-06T22:16:23.850Z,18.58
2022-12-06T22:18:54.942Z,19.23
2022-12-06T22:21:24.794Z,21.27
2022-12-06T22:23:54.891Z,20.13
2022-12-06T22:26:24.079Z,21.35
2022-12-06T22:28:52.609Z,19.40
2022-12-06T22:31:22.057Z,19.90
2022-12-06T22:33:51.144Z,20.80
2022-12-06T22:36:20.174Z,22.98
2022-12-06T22:38:50.119Z,26.73
2022-12-06T22:41:20.348Z,20.50
2022-12-06T22:43:51.842Z,25.70
2022-12-06T22:46:20.395Z,22.38
2022-12-06T22:48:48.911Z,20.77
2022-12-06T22:51:18.318Z,23.85
2022-12-06T22:53:47.704Z,23.25
2022-12-06T22:56:16.513Z,26.00
2022-12-06T22:58:46.216Z,23.67
2022-12-06T23:01:16.805Z,23.23
2022-12-06T23:03:46.112Z,23.95
2022-12-06T23:06:14.573Z,23.25
2022-12-06T23:08:43.027Z,23.52
2022-12-06T23:11:12.820Z,24.17
2022-12-06T23:13:41.299Z,23.75
2022-12-06T23:16:13.437Z,26.38
2022-12-06T23:18:41.855Z,23.88
2022-12-06T23:21:12.309Z,21.92
2022-12-06T23:23:41.240Z,21.25
2022-12-06T23:26:10.868Z,23.13
2022-12-06T23:28:39.566Z,26.83
2022-12-06T23:31:09.132Z,22.95
2022-12-06T23:33:38.876Z,25.25
2022-12-06T23:36:08.192Z,24.65
2022-12-06T23:38:36.863Z,24.60
2022-12-06T23:41:05.804Z,24.17
2022-12-06T23:43:34.174Z,23.63
2022-12-06T23:46:07.469Z,22.35
2022-12-06T23:48:36.660Z,22.70
2022-12-06T23:51:07.684Z,21.92
2022-12-06T23:53:36.264Z,20.83
2022-12-06T23:56:06.634Z,21.83
2022-12-06T23:58:36.505Z,22.67
